Estación Meteorológica Peña el Pijo (Robertgarden) [ 09/22/18 22:35:18 CEST ]

Fecha Hora Presion(HPa) Temp (°C) Humedad % Rocio (°C) Viento ( m/s) Direccion Lluvia 1Hora(mm) Lluvia 24H(mm) LLuvia Total(mm)
2018-May-09 01:01:59 1005.200 9.1 83 6.3       0.51 205.64
2018-May-09 02:01:42 1004.900 9.1 84 6.5       0.51 205.64
2018-May-09 03:03:13 1004.800 8.7 84 6.1       0.51 205.64
2018-May-09 04:01:50 1004.200 8.6 84 6.0       0.51 205.64
2018-May-09 05:01:56 1003.700 8.3 84 5.8       0.51 205.64
2018-May-09 06:01:39 1003.200 7.8 85 5.4       0.51 205.64
2018-May-09 07:01:41 1003.600 7.8 86 5.6       0.51 205.64
2018-May-09 08:01:57 1003.900 8.9 87 6.9       0.51 205.64
2018-May-09 09:02:08 1004.100 13.4 85 10.9       0.51 205.64
2018-May-09 10:01:42 1004.400 18.9 68 12.8       0.51 205.64
2018-May-09 11:01:53 1004.100 21.8 54 12.0       0.51 205.64
2018-May-09 12:01:50 1004.000 23.1 45 10.4       0.51 205.64
2018-May-09 13:01:39 1003.600 23.4 41 9.4       0.51 205.64
2018-May-09 14:01:47 1003.300 24.4 40 10.0 1.3 SSW   0.51 205.64
2018-May-09 15:01:44 1002.700 26.2 34 9.0 1.5 NW   0.51 205.64
2018-May-09 16:01:51 1002.500 26.2 36 9.4       0.51 205.64
2018-May-09 17:02:10 1002.100 24.8 39 9.9       0.51 205.64
2018-May-09 18:01:32 1002.600 21.4 43 8.2       0.51 205.64
2018-May-09 19:01:44 1002.800 19.1 51 8.8 2.7 WNW     205.64
2018-May-09 20:01:28 1003.200 18.2 58 9.8         205.64
2018-May-09 21:01:28 1003.600 17.1 63 10.0 0.7 NW     205.64
2018-May-09 22:01:33 1004.400 15.9 67 9.8         205.64
2018-May-09 23:01:23 1004.500 14.9 70 9.5         205.64

Temperatura Máxima:26°    Temperatura Mínima:
Presión Máxima:1005.200 Hpa    Presión Mínima:1002.100 Hpa


Volver